sensor_id;sensor_type;location;lat;lon;timestamp;P1;durP1;ratioP1;P2;durP2;ratioP2
16693;SDS011;39538;52.196;9.892;2023-01-01T00:00:58;3.03;;;2.70;;
16693;SDS011;39538;52.196;9.892;2023-01-01T00:03:25;5.93;;;1.77;;
16693;SDS011;39538;52.196;9.892;2023-01-01T00:05:51;3.33;;;1.03;;
16693;SDS011;39538;52.196;9.892;2023-01-01T00:08:18;4.97;;;1.00;;
16693;SDS011;39538;52.196;9.892;2023-01-01T00:10:44;8.60;;;2.57;;
16693;SDS011;39538;52.196;9.892;2023-01-01T00:13:11;3.03;;;1.57;;
16693;SDS011;39538;52.196;9.892;2023-01-01T00:15:39;3.10;;;1.83;;
16693;SDS011;39538;52.196;9.892;2023-01-01T00:18:06;4.47;;;1.10;;
16693;SDS011;39538;52.196;9.892;2023-01-01T00:20:32;4.17;;;1.40;;
16693;SDS011;39538;52.196;9.892;2023-01-01T00:22:59;4.70;;;1.00;;
16693;SDS011;39538;52.196;9.892;2023-01-01T00:25:25;4.23;;;1.70;;
16693;SDS011;39538;52.196;9.892;2023-01-01T00:27:52;3.17;;;1.10;;
16693;SDS011;39538;52.196;9.892;2023-01-01T00:30:19;4.17;;;1.23;;
16693;SDS011;39538;52.196;9.892;2023-01-01T00:32:47;3.70;;;1.53;;
16693;SDS011;39538;52.196;9.892;2023-01-01T00:35:14;2.23;;;0.90;;
16693;SDS011;39538;52.196;9.892;2023-01-01T00:37:40;4.23;;;1.23;;
16693;SDS011;39538;52.196;9.892;2023-01-01T00:40:07;3.27;;;2.43;;
16693;SDS011;39538;52.196;9.892;2023-01-01T00:42:35;2.77;;;1.37;;
16693;SDS011;39538;52.196;9.892;2023-01-01T00:45:04;5.40;;;1.30;;
16693;SDS011;39538;52.196;9.892;2023-01-01T00:47:32;2.37;;;1.10;;
16693;SDS011;39538;52.196;9.892;2023-01-01T00:50:00;4.33;;;1.13;;
16693;SDS011;39538;52.196;9.892;2023-01-01T00:52:26;3.33;;;1.20;;
16693;SDS011;39538;52.196;9.892;2023-01-01T00:54:52;5.10;;;0.90;;
16693;SDS011;39538;52.196;9.892;2023-01-01T00:57:19;3.07;;;1.07;;
16693;SDS011;39538;52.196;9.892;2023-01-01T00:59:45;6.13;;;2.07;;
16693;SDS011;39538;52.196;9.892;2023-01-01T01:02:13;5.20;;;1.40;;
16693;SDS011;39538;52.196;9.892;2023-01-01T01:04:39;5.20;;;1.37;;
16693;SDS011;39538;52.196;9.892;2023-01-01T01:07:07;2.40;;;1.53;;
16693;SDS011;39538;52.196;9.892;2023-01-01T01:09:34;3.30;;;0.97;;
16693;SDS011;39538;52.196;9.892;2023-01-01T01:12:01;1.97;;;1.30;;
16693;SDS011;39538;52.196;9.892;2023-01-01T01:14:28;7.57;;;1.50;;
16693;SDS011;39538;52.196;9.892;2023-01-01T01:16:54;7.07;;;3.03;;
16693;SDS011;39538;52.196;9.892;2023-01-01T01:19:21;2.53;;;1.27;;
16693;SDS011;39538;52.196;9.892;2023-01-01T01:21:49;3.43;;;1.10;;
16693;SDS011;39538;52.196;9.892;2023-01-01T01:24:18;2.53;;;1.63;;
16693;SDS011;39538;52.196;9.892;2023-01-01T01:26:44;4.13;;;1.27;;
16693;SDS011;39538;52.196;9.892;2023-01-01T01:29:11;7.63;;;1.20;;
16693;SDS011;39538;52.196;9.892;2023-01-01T01:31:37;3.47;;;1.03;;
16693;SDS011;39538;52.196;9.892;2023-01-01T01:34:04;2.60;;;1.17;;
16693;SDS011;39538;52.196;9.892;2023-01-01T01:36:31;1.90;;;1.80;;
16693;SDS011;39538;52.196;9.892;2023-01-01T01:38:57;2.37;;;0.90;;
16693;SDS011;39538;52.196;9.892;2023-01-01T01:41:25;1.43;;;0.87;;
16693;SDS011;39538;52.196;9.892;2023-01-01T01:43:54;6.20;;;1.80;;
16693;SDS011;39538;52.196;9.892;2023-01-01T01:46:24;2.37;;;1.57;;
16693;SDS011;39538;52.196;9.892;2023-01-01T01:48:55;2.87;;;1.97;;
16693;SDS011;39538;52.196;9.892;2023-01-01T01:51:25;2.23;;;1.37;;
16693;SDS011;39538;52.196;9.892;2023-01-01T01:53:56;4.60;;;2.30;;
16693;SDS011;39538;52.196;9.892;2023-01-01T01:56:29;6.40;;;1.23;;
16693;SDS011;39538;52.196;9.892;2023-01-01T01:59:01;1.87;;;1.40;;
16693;SDS011;39538;52.196;9.892;2023-01-01T02:01:27;2.07;;;1.20;;
16693;SDS011;39538;52.196;9.892;2023-01-01T02:03:56;8.47;;;1.93;;
16693;SDS011;39538;52.196;9.892;2023-01-01T02:06:24;6.47;;;1.67;;
16693;SDS011;39538;52.196;9.892;2023-01-01T02:08:53;2.70;;;1.50;;
16693;SDS011;39538;52.196;9.892;2023-01-01T02:11:21;3.37;;;1.53;;
16693;SDS011;39538;52.196;9.892;2023-01-01T02:13:50;2.70;;;1.80;;
16693;SDS011;39538;52.196;9.892;2023-01-01T02:16:19;8.93;;;2.10;;
16693;SDS011;39538;52.196;9.892;2023-01-01T02:18:49;3.10;;;1.10;;
16693;SDS011;39538;52.196;9.892;2023-01-01T02:21:24;5.33;;;1.10;;
16693;SDS011;39538;52.196;9.892;2023-01-01T02:23:59;6.00;;;3.33;;
16693;SDS011;39538;52.196;9.892;2023-01-01T02:26:39;3.80;;;1.77;;
16693;SDS011;39538;52.196;9.892;2023-01-01T02:29:27;4.87;;;1.00;;
16693;SDS011;39538;52.196;9.892;2023-01-01T02:32:00;8.93;;;3.00;;
16693;SDS011;39538;52.196;9.892;2023-01-01T02:34:30;2.53;;;1.47;;
16693;SDS011;39538;52.196;9.892;2023-01-01T02:37:00;4.40;;;1.50;;
16693;SDS011;39538;52.196;9.892;2023-01-01T02:39:31;4.50;;;3.00;;
16693;SDS011;39538;52.196;9.892;2023-01-01T02:42:00;5.13;;;1.33;;
16693;SDS011;39538;52.196;9.892;2023-01-01T02:44:33;5.73;;;1.80;;
16693;SDS011;39538;52.196;9.892;2023-01-01T02:47:05;11.57;;;2.33;;
16693;SDS011;39538;52.196;9.892;2023-01-01T02:49:34;2.03;;;1.57;;
16693;SDS011;39538;52.196;9.892;2023-01-01T02:52:05;4.13;;;1.30;;
16693;SDS011;39538;52.196;9.892;2023-01-01T02:54:37;2.83;;;1.33;;
16693;SDS011;39538;52.196;9.892;2023-01-01T02:57:12;6.83;;;2.67;;
16693;SDS011;39538;52.196;9.892;2023-01-01T02:59:54;5.83;;;1.80;;
16693;SDS011;39538;52.196;9.892;2023-01-01T03:02:51;6.33;;;1.83;;
16693;SDS011;39538;52.196;9.892;2023-01-01T03:05:28;4.07;;;1.60;;
16693;SDS011;39538;52.196;9.892;2023-01-01T03:08:01;6.23;;;2.23;;
16693;SDS011;39538;52.196;9.892;2023-01-01T03:10:39;6.67;;;1.53;;
16693;SDS011;39538;52.196;9.892;2023-01-01T03:13:17;2.77;;;0.90;;
16693;SDS011;39538;52.196;9.892;2023-01-01T03:15:55;4.43;;;1.43;;
16693;SDS011;39538;52.196;9.892;2023-01-01T03:18:25;8.63;;;2.93;;
16693;SDS011;39538;52.196;9.892;2023-01-01T03:20:58;3.00;;;1.47;;
16693;SDS011;39538;52.196;9.892;2023-01-01T03:23:28;2.97;;;1.20;;
16693;SDS011;39538;52.196;9.892;2023-01-01T03:25:59;4.70;;;1.13;;
16693;SDS011;39538;52.196;9.892;2023-01-01T03:28:32;2.93;;;1.73;;
16693;SDS011;39538;52.196;9.892;2023-01-01T03:31:03;1.27;;;0.80;;
16693;SDS011;39538;52.196;9.892;2023-01-01T03:33:31;3.37;;;2.07;;
16693;SDS011;39538;52.196;9.892;2023-01-01T03:36:04;1.83;;;1.23;;
16693;SDS011;39538;52.196;9.892;2023-01-01T03:38:34;1.90;;;1.47;;
16693;SDS011;39538;52.196;9.892;2023-01-01T03:41:06;5.50;;;1.30;;
16693;SDS011;39538;52.196;9.892;2023-01-01T03:43:37;3.80;;;1.63;;
16693;SDS011;39538;52.196;9.892;2023-01-01T03:46:09;1.73;;;1.00;;
16693;SDS011;39538;52.196;9.892;2023-01-01T03:48:38;4.10;;;1.23;;
16693;SDS011;39538;52.196;9.892;2023-01-01T03:51:20;2.63;;;1.63;;
16693;SDS011;39538;52.196;9.892;2023-01-01T03:53:51;5.47;;;1.67;;
16693;SDS011;39538;52.196;9.892;2023-01-01T03:56:20;3.40;;;1.10;;
16693;SDS011;39538;52.196;9.892;2023-01-01T03:58:59;4.77;;;1.63;;
16693;SDS011;39538;52.196;9.892;2023-01-01T04:01:34;4.73;;;2.60;;
16693;SDS011;39538;52.196;9.892;2023-01-01T04:04:05;2.07;;;1.20;;
16693;SDS011;39538;52.196;9.892;2023-01-01T04:06:32;1.93;;;1.00;;
16693;SDS011;39538;52.196;9.892;2023-01-01T04:08:59;6.80;;;1.77;;
16693;SDS011;39538;52.196;9.892;2023-01-01T04:11:28;1.63;;;1.20;;
16693;SDS011;39538;52.196;9.892;2023-01-01T04:14:24;2.53;;;1.47;;
16693;SDS011;39538;52.196;9.892;2023-01-01T04:16:54;2.47;;;1.63;;
16693;SDS011;39538;52.196;9.892;2023-01-01T04:19:20;2.77;;;1.10;;
16693;SDS011;39538;52.196;9.892;2023-01-01T04:21:47;7.73;;;1.53;;
16693;SDS011;39538;52.196;9.892;2023-01-01T04:24:13;1.57;;;1.47;;
16693;SDS011;39538;52.196;9.892;2023-01-01T04:26:40;2.37;;;0.83;;
16693;SDS011;39538;52.196;9.892;2023-01-01T04:29:06;2.57;;;1.10;;
16693;SDS011;39538;52.196;9.892;2023-01-01T04:31:33;2.80;;;0.77;;
16693;SDS011;39538;52.196;9.892;2023-01-01T04:34:01;4.33;;;1.23;;
16693;SDS011;39538;52.196;9.892;2023-01-01T04:36:27;1.10;;;1.03;;
16693;SDS011;39538;52.196;9.892;2023-01-01T04:38:54;1.37;;;0.97;;
16693;SDS011;39538;52.196;9.892;2023-01-01T04:41:20;1.67;;;1.27;;
16693;SDS011;39538;52.196;9.892;2023-01-01T04:43:46;1.83;;;1.10;;
16693;SDS011;39538;52.196;9.892;2023-01-01T04:46:14;2.10;;;1.30;;
16693;SDS011;39538;52.196;9.892;2023-01-01T04:48:42;3.90;;;2.67;;
16693;SDS011;39538;52.196;9.892;2023-01-01T04:51:10;3.97;;;1.37;;
16693;SDS011;39538;52.196;9.892;2023-01-01T04:53:37;2.37;;;1.03;;
16693;SDS011;39538;52.196;9.892;2023-01-01T04:56:04;2.17;;;1.40;;
16693;SDS011;39538;52.196;9.892;2023-01-01T04:58:31;1.03;;;0.83;;
16693;SDS011;39538;52.196;9.892;2023-01-01T05:00:58;4.33;;;1.20;;
16693;SDS011;39538;52.196;9.892;2023-01-01T05:03:24;1.70;;;1.07;;
16693;SDS011;39538;52.196;9.892;2023-01-01T05:05:58;1.63;;;1.00;;
16693;SDS011;39538;52.196;9.892;2023-01-01T05:08:27;1.90;;;0.90;;
16693;SDS011;39538;52.196;9.892;2023-01-01T05:10:58;2.90;;;1.13;;
16693;SDS011;39538;52.196;9.892;2023-01-01T05:13:25;5.47;;;1.50;;
16693;SDS011;39538;52.196;9.892;2023-01-01T05:15:51;1.17;;;1.07;;
16693;SDS011;39538;52.196;9.892;2023-01-01T05:18:17;1.60;;;0.93;;
16693;SDS011;39538;52.196;9.892;2023-01-01T05:20:44;2.10;;;1.20;;
16693;SDS011;39538;52.196;9.892;2023-01-01T05:23:10;1.23;;;0.70;;
16693;SDS011;39538;52.196;9.892;2023-01-01T05:25:38;1.43;;;0.90;;
16693;SDS011;39538;52.196;9.892;2023-01-01T05:28:04;1.30;;;1.20;;
16693;SDS011;39538;52.196;9.892;2023-01-01T05:30:31;2.27;;;1.00;;
16693;SDS011;39538;52.196;9.892;2023-01-01T05:32:57;3.17;;;0.93;;
16693;SDS011;39538;52.196;9.892;2023-01-01T05:35:24;1.87;;;0.90;;
16693;SDS011;39538;52.196;9.892;2023-01-01T05:37:50;3.13;;;0.80;;
16693;SDS011;39538;52.196;9.892;2023-01-01T05:40:17;2.97;;;1.23;;
16693;SDS011;39538;52.196;9.892;2023-01-01T05:42:46;3.00;;;1.17;;
16693;SDS011;39538;52.196;9.892;2023-01-01T05:45:13;3.50;;;0.80;;
16693;SDS011;39538;52.196;9.892;2023-01-01T05:47:39;1.30;;;1.00;;
16693;SDS011;39538;52.196;9.892;2023-01-01T05:50:06;4.33;;;1.00;;
16693;SDS011;39538;52.196;9.892;2023-01-01T05:52:33;5.80;;;1.00;;
16693;SDS011;39538;52.196;9.892;2023-01-01T05:54:59;2.50;;;1.03;;
16693;SDS011;39538;52.196;9.892;2023-01-01T05:57:26;2.33;;;1.50;;
16693;SDS011;39538;52.196;9.892;2023-01-01T05:59:54;0.73;;;0.73;;
16693;SDS011;39538;52.196;9.892;2023-01-01T06:02:21;2.70;;;0.93;;
16693;SDS011;39538;52.196;9.892;2023-01-01T06:04:47;2.37;;;0.70;;
16693;SDS011;39538;52.196;9.892;2023-01-01T06:07:14;1.43;;;1.10;;
16693;SDS011;39538;52.196;9.892;2023-01-01T06:09:40;2.57;;;1.60;;
16693;SDS011;39538;52.196;9.892;2023-01-01T06:12:07;3.80;;;0.50;;
16693;SDS011;39538;52.196;9.892;2023-01-01T06:14:33;1.13;;;0.80;;
16693;SDS011;39538;52.196;9.892;2023-01-01T06:17:01;0.83;;;0.70;;
16693;SDS011;39538;52.196;9.892;2023-01-01T06:19:27;0.80;;;0.70;;
16693;SDS011;39538;52.196;9.892;2023-01-01T06:21:54;3.73;;;1.07;;
16693;SDS011;39538;52.196;9.892;2023-01-01T06:24:20;3.60;;;0.70;;
16693;SDS011;39538;52.196;9.892;2023-01-01T06:26:46;2.60;;;0.77;;
16693;SDS011;39538;52.196;9.892;2023-01-01T06:29:13;4.63;;;1.37;;
16693;SDS011;39538;52.196;9.892;2023-01-01T06:31:39;1.80;;;0.90;;
16693;SDS011;39538;52.196;9.892;2023-01-01T06:34:07;0.87;;;0.70;;
16693;SDS011;39538;52.196;9.892;2023-01-01T06:36:34;5.10;;;0.80;;
16693;SDS011;39538;52.196;9.892;2023-01-01T06:39:00;7.50;;;0.83;;
16693;SDS011;39538;52.196;9.892;2023-01-01T06:41:27;1.17;;;0.63;;
16693;SDS011;39538;52.196;9.892;2023-01-01T06:43:55;1.90;;;0.77;;
16693;SDS011;39538;52.196;9.892;2023-01-01T06:46:22;1.17;;;0.70;;
16693;SDS011;39538;52.196;9.892;2023-01-01T06:48:51;1.23;;;0.73;;
16693;SDS011;39538;52.196;9.892;2023-01-01T06:51:21;1.50;;;0.67;;
16693;SDS011;39538;52.196;9.892;2023-01-01T06:53:48;1.50;;;1.37;;
16693;SDS011;39538;52.196;9.892;2023-01-01T06:56:16;1.27;;;0.70;;
16693;SDS011;39538;52.196;9.892;2023-01-01T06:58:43;4.20;;;0.80;;
16693;SDS011;39538;52.196;9.892;2023-01-01T07:01:10;2.27;;;0.80;;
16693;SDS011;39538;52.196;9.892;2023-01-01T07:03:39;5.97;;;1.00;;
16693;SDS011;39538;52.196;9.892;2023-01-01T07:06:07;1.27;;;0.80;;
16693;SDS011;39538;52.196;9.892;2023-01-01T07:08:35;1.40;;;0.87;;
16693;SDS011;39538;52.196;9.892;2023-01-01T07:11:02;2.90;;;0.90;;
16693;SDS011;39538;52.196;9.892;2023-01-01T07:13:29;3.83;;;0.60;;
16693;SDS011;39538;52.196;9.892;2023-01-01T07:15:56;1.10;;;0.70;;
16693;SDS011;39538;52.196;9.892;2023-01-01T07:18:23;4.30;;;0.97;;
16693;SDS011;39538;52.196;9.892;2023-01-01T07:20:50;3.57;;;1.17;;
16693;SDS011;39538;52.196;9.892;2023-01-01T07:23:18;1.30;;;0.77;;
16693;SDS011;39538;52.196;9.892;2023-01-01T07:25:46;2.13;;;0.60;;
16693;SDS011;39538;52.196;9.892;2023-01-01T07:28:14;0.93;;;0.60;;
16693;SDS011;39538;52.196;9.892;2023-01-01T07:30:40;2.17;;;0.70;;
16693;SDS011;39538;52.196;9.892;2023-01-01T07:33:09;1.13;;;0.60;;
16693;SDS011;39538;52.196;9.892;2023-01-01T07:35:36;2.70;;;0.80;;
16693;SDS011;39538;52.196;9.892;2023-01-01T07:38:02;1.17;;;0.70;;
16693;SDS011;39538;52.196;9.892;2023-01-01T07:40:29;3.20;;;1.33;;
16693;SDS011;39538;52.196;9.892;2023-01-01T07:42:56;2.67;;;0.90;;
16693;SDS011;39538;52.196;9.892;2023-01-01T07:45:23;1.33;;;1.23;;
16693;SDS011;39538;52.196;9.892;2023-01-01T07:47:51;0.90;;;0.60;;
16693;SDS011;39538;52.196;9.892;2023-01-01T07:50:19;1.80;;;0.83;;
16693;SDS011;39538;52.196;9.892;2023-01-01T07:52:46;2.17;;;1.00;;
16693;SDS011;39538;52.196;9.892;2023-01-01T07:55:13;1.60;;;0.57;;
16693;SDS011;39538;52.196;9.892;2023-01-01T07:57:40;2.43;;;0.93;;
16693;SDS011;39538;52.196;9.892;2023-01-01T08:00:09;1.20;;;0.73;;
16693;SDS011;39538;52.196;9.892;2023-01-01T08:02:37;3.50;;;1.43;;
16693;SDS011;39538;52.196;9.892;2023-01-01T08:05:04;1.90;;;0.80;;
16693;SDS011;39538;52.196;9.892;2023-01-01T08:07:31;2.70;;;1.03;;
16693;SDS011;39538;52.196;9.892;2023-01-01T08:09:58;2.13;;;0.70;;
16693;SDS011;39538;52.196;9.892;2023-01-01T08:12:24;0.70;;;0.70;;
16693;SDS011;39538;52.196;9.892;2023-01-01T08:14:51;1.57;;;1.17;;
16693;SDS011;39538;52.196;9.892;2023-01-01T08:17:19;2.10;;;0.67;;
16693;SDS011;39538;52.196;9.892;2023-01-01T08:19:45;0.90;;;0.63;;
16693;SDS011;39538;52.196;9.892;2023-01-01T08:22:13;8.80;;;0.93;;
16693;SDS011;39538;52.196;9.892;2023-01-01T08:24:40;2.57;;;0.90;;
16693;SDS011;39538;52.196;9.892;2023-01-01T08:27:06;0.67;;;0.57;;
16693;SDS011;39538;52.196;9.892;2023-01-01T08:29:35;1.63;;;1.03;;
16693;SDS011;39538;52.196;9.892;2023-01-01T08:32:01;1.43;;;0.73;;
16693;SDS011;39538;52.196;9.892;2023-01-01T08:34:29;4.17;;;1.20;;
16693;SDS011;39538;52.196;9.892;2023-01-01T08:36:56;2.63;;;0.47;;
16693;SDS011;39538;52.196;9.892;2023-01-01T08:39:23;4.23;;;0.60;;
16693;SDS011;39538;52.196;9.892;2023-01-01T08:41:50;0.63;;;0.60;;
16693;SDS011;39538;52.196;9.892;2023-01-01T08:44:17;1.80;;;0.50;;
16693;SDS011;39538;52.196;9.892;2023-01-01T08:46:43;1.07;;;0.60;;
16693;SDS011;39538;52.196;9.892;2023-01-01T08:49:10;0.90;;;0.60;;
16693;SDS011;39538;52.196;9.892;2023-01-01T08:51:37;0.80;;;0.77;;
16693;SDS011;39538;52.196;9.892;2023-01-01T08:54:04;3.57;;;0.97;;
16693;SDS011;39538;52.196;9.892;2023-01-01T08:56:32;1.27;;;0.80;;
16693;SDS011;39538;52.196;9.892;2023-01-01T08:58:59;1.90;;;0.50;;
16693;SDS011;39538;52.196;9.892;2023-01-01T09:01:25;1.33;;;0.70;;
16693;SDS011;39538;52.196;9.892;2023-01-01T09:03:52;1.20;;;0.80;;
16693;SDS011;39538;52.196;9.892;2023-01-01T09:06:18;1.33;;;0.80;;
16693;SDS011;39538;52.196;9.892;2023-01-01T09:08:46;3.93;;;0.60;;
16693;SDS011;39538;52.196;9.892;2023-01-01T09:11:14;0.67;;;0.43;;
16693;SDS011;39538;52.196;9.892;2023-01-01T09:13:47;0.80;;;0.70;;
16693;SDS011;39538;52.196;9.892;2023-01-01T09:16:14;1.57;;;1.47;;
16693;SDS011;39538;52.196;9.892;2023-01-01T09:18:40;1.47;;;0.70;;
16693;SDS011;39538;52.196;9.892;2023-01-01T09:21:07;1.67;;;0.50;;
16693;SDS011;39538;52.196;9.892;2023-01-01T09:23:33;3.40;;;1.73;;
16693;SDS011;39538;52.196;9.892;2023-01-01T09:26:02;0.80;;;0.70;;
16693;SDS011;39538;52.196;9.892;2023-01-01T09:28:29;0.93;;;0.93;;
16693;SDS011;39538;52.196;9.892;2023-01-01T09:30:55;0.93;;;0.50;;
16693;SDS011;39538;52.196;9.892;2023-01-01T09:33:22;2.10;;;0.53;;
16693;SDS011;39538;52.196;9.892;2023-01-01T09:35:48;6.17;;;1.10;;
16693;SDS011;39538;52.196;9.892;2023-01-01T09:38:15;1.30;;;0.47;;
16693;SDS011;39538;52.196;9.892;2023-01-01T09:40:45;1.27;;;0.80;;
16693;SDS011;39538;52.196;9.892;2023-01-01T09:43:23;4.47;;;1.10;;
16693;SDS011;39538;52.196;9.892;2023-01-01T09:45:59;1.23;;;0.60;;
16693;SDS011;39538;52.196;9.892;2023-01-01T09:48:28;1.03;;;0.70;;
16693;SDS011;39538;52.196;9.892;2023-01-01T09:50:56;1.87;;;0.80;;
16693;SDS011;39538;52.196;9.892;2023-01-01T09:53:26;2.30;;;0.70;;
16693;SDS011;39538;52.196;9.892;2023-01-01T09:55:58;0.83;;;0.60;;
16693;SDS011;39538;52.196;9.892;2023-01-01T09:58:28;1.03;;;0.60;;
16693;SDS011;39538;52.196;9.892;2023-01-01T10:00:59;3.20;;;0.80;;
16693;SDS011;39538;52.196;9.892;2023-01-01T10:03:34;0.47;;;0.40;;
16693;SDS011;39538;52.196;9.892;2023-01-01T10:06:14;2.60;;;1.00;;
16693;SDS011;39538;52.196;9.892;2023-01-01T10:08:50;0.73;;;0.50;;
16693;SDS011;39538;52.196;9.892;2023-01-01T10:11:26;1.23;;;0.60;;
16693;SDS011;39538;52.196;9.892;2023-01-01T10:14:03;1.90;;;1.03;;
16693;SDS011;39538;52.196;9.892;2023-01-01T10:16:38;2.63;;;1.97;;
16693;SDS011;39538;52.196;9.892;2023-01-01T10:19:12;1.40;;;0.73;;
16693;SDS011;39538;52.196;9.892;2023-01-01T10:21:46;1.83;;;0.80;;
16693;SDS011;39538;52.196;9.892;2023-01-01T10:24:22;0.50;;;0.50;;
16693;SDS011;39538;52.196;9.892;2023-01-01T10:26:58;3.90;;;1.60;;
16693;SDS011;39538;52.196;9.892;2023-01-01T10:29:31;12.10;;;1.37;;
16693;SDS011;39538;52.196;9.892;2023-01-01T10:32:05;1.80;;;1.63;;
16693;SDS011;39538;52.196;9.892;2023-01-01T10:34:42;1.53;;;0.90;;
16693;SDS011;39538;52.196;9.892;2023-01-01T10:37:09;1.47;;;1.37;;
16693;SDS011;39538;52.196;9.892;2023-01-01T10:39:36;1.17;;;1.07;;
16693;SDS011;39538;52.196;9.892;2023-01-01T10:42:04;1.67;;;1.13;;
16693;SDS011;39538;52.196;9.892;2023-01-01T10:44:32;2.60;;;2.37;;
16693;SDS011;39538;52.196;9.892;2023-01-01T10:49:52;1.97;;;1.03;;
16693;SDS011;39538;52.196;9.892;2023-01-01T10:52:21;2.47;;;1.77;;
16693;SDS011;39538;52.196;9.892;2023-01-01T10:54:51;3.97;;;1.00;;
16693;SDS011;39538;52.196;9.892;2023-01-01T10:57:19;2.73;;;1.73;;
16693;SDS011;39538;52.196;9.892;2023-01-01T11:00:03;7.67;;;1.57;;
16693;SDS011;39538;52.196;9.892;2023-01-01T11:02:36;3.57;;;1.33;;
16693;SDS011;39538;52.196;9.892;2023-01-01T11:05:13;7.33;;;1.80;;
16693;SDS011;39538;52.196;9.892;2023-01-01T11:07:42;1.53;;;1.27;;
16693;SDS011;39538;52.196;9.892;2023-01-01T11:10:15;0.80;;;0.80;;
16693;SDS011;39538;52.196;9.892;2023-01-01T11:12:43;2.50;;;1.00;;
16693;SDS011;39538;52.196;9.892;2023-01-01T11:15:20;4.17;;;0.70;;
16693;SDS011;39538;52.196;9.892;2023-01-01T11:17:48;1.27;;;1.27;;
16693;SDS011;39538;52.196;9.892;2023-01-01T11:20:16;2.10;;;0.67;;
16693;SDS011;39538;52.196;9.892;2023-01-01T11:22:45;2.73;;;1.70;;
16693;SDS011;39538;52.196;9.892;2023-01-01T11:25:17;3.17;;;1.20;;
16693;SDS011;39538;52.196;9.892;2023-01-01T11:27:45;3.17;;;1.13;;
16693;SDS011;39538;52.196;9.892;2023-01-01T11:30:18;4.10;;;1.47;;
16693;SDS011;39538;52.196;9.892;2023-01-01T11:32:48;2.70;;;1.63;;
16693;SDS011;39538;52.196;9.892;2023-01-01T11:35:16;1.10;;;1.00;;
16693;SDS011;39538;52.196;9.892;2023-01-01T11:37:45;1.30;;;1.17;;
16693;SDS011;39538;52.196;9.892;2023-01-01T11:40:17;3.03;;;1.70;;
16693;SDS011;39538;52.196;9.892;2023-01-01T11:42:47;3.00;;;1.90;;
16693;SDS011;39538;52.196;9.892;2023-01-01T11:45:17;6.40;;;2.67;;
16693;SDS011;39538;52.196;9.892;2023-01-01T11:47:49;6.37;;;4.00;;
16693;SDS011;39538;52.196;9.892;2023-01-01T11:50:18;4.07;;;2.43;;
16693;SDS011;39538;52.196;9.892;2023-01-01T11:52:51;6.57;;;2.50;;
16693;SDS011;39538;52.196;9.892;2023-01-01T11:55:21;4.03;;;2.20;;
16693;SDS011;39538;52.196;9.892;2023-01-01T11:57:55;2.17;;;1.63;;
16693;SDS011;39538;52.196;9.892;2023-01-01T12:00:24;1.50;;;1.03;;
16693;SDS011;39538;52.196;9.892;2023-01-01T12:02:55;3.67;;;0.87;;
16693;SDS011;39538;52.196;9.892;2023-01-01T12:05:26;1.43;;;0.97;;
16693;SDS011;39538;52.196;9.892;2023-01-01T12:08:05;1.07;;;0.80;;
16693;SDS011;39538;52.196;9.892;2023-01-01T12:10:43;3.67;;;1.53;;
16693;SDS011;39538;52.196;9.892;2023-01-01T12:13:14;4.00;;;1.33;;
16693;SDS011;39538;52.196;9.892;2023-01-01T12:15:45;10.93;;;6.00;;
16693;SDS011;39538;52.196;9.892;2023-01-01T12:18:19;7.77;;;3.73;;
16693;SDS011;39538;52.196;9.892;2023-01-01T12:20:51;3.03;;;2.70;;
16693;SDS011;39538;52.196;9.892;2023-01-01T12:23:23;2.53;;;2.03;;
16693;SDS011;39538;52.196;9.892;2023-01-01T12:25:51;6.60;;;2.90;;
16693;SDS011;39538;52.196;9.892;2023-01-01T12:28:28;22.20;;;10.93;;
16693;SDS011;39538;52.196;9.892;2023-01-01T12:31:06;72.40;;;27.50;;
16693;SDS011;39538;52.196;9.892;2023-01-01T12:33:45;37.03;;;20.57;;
16693;SDS011;39538;52.196;9.892;2023-01-01T12:36:24;19.63;;;14.67;;
16693;SDS011;39538;52.196;9.892;2023-01-01T12:39:12;15.03;;;11.33;;
16693;SDS011;39538;52.196;9.892;2023-01-01T12:42:11;3.30;;;2.83;;
16693;SDS011;39538;52.196;9.892;2023-01-01T12:44:49;3.07;;;1.60;;
16693;SDS011;39538;52.196;9.892;2023-01-01T12:47:31;4.33;;;1.40;;
16693;SDS011;39538;52.196;9.892;2023-01-01T12:50:09;0.87;;;0.80;;
16693;SDS011;39538;52.196;9.892;2023-01-01T12:52:49;5.50;;;1.77;;
16693;SDS011;39538;52.196;9.892;2023-01-01T12:55:39;13.50;;;9.07;;
16693;SDS011;39538;52.196;9.892;2023-01-01T12:58:18;19.80;;;14.53;;
16693;SDS011;39538;52.196;9.892;2023-01-01T13:00:53;5.17;;;4.67;;
16693;SDS011;39538;52.196;9.892;2023-01-01T13:03:23;4.47;;;3.73;;
16693;SDS011;39538;52.196;9.892;2023-01-01T13:05:55;0.97;;;0.87;;
16693;SDS011;39538;52.196;9.892;2023-01-01T13:08:22;1.13;;;1.00;;
16693;SDS011;39538;52.196;9.892;2023-01-01T13:10:49;5.53;;;1.40;;
16693;SDS011;39538;52.196;9.892;2023-01-01T13:13:18;1.30;;;0.80;;
16693;SDS011;39538;52.196;9.892;2023-01-01T13:15:46;1.80;;;0.73;;
16693;SDS011;39538;52.196;9.892;2023-01-01T13:18:21;0.53;;;0.53;;
16693;SDS011;39538;52.196;9.892;2023-01-01T13:20:55;0.87;;;0.57;;
16693;SDS011;39538;52.196;9.892;2023-01-01T13:23:40;2.07;;;0.50;;
16693;SDS011;39538;52.196;9.892;2023-01-01T13:26:30;0.97;;;0.47;;
16693;SDS011;39538;52.196;9.892;2023-01-01T13:32:05;2.90;;;1.63;;
16693;SDS011;39538;52.196;9.892;2023-01-01T13:34:37;1.10;;;0.80;;
16693;SDS011;39538;52.196;9.892;2023-01-01T13:39:56;4.37;;;1.10;;
16693;SDS011;39538;52.196;9.892;2023-01-01T13:42:36;2.43;;;0.80;;
16693;SDS011;39538;52.196;9.892;2023-01-01T13:45:06;2.40;;;0.83;;
16693;SDS011;39538;52.196;9.892;2023-01-01T13:47:41;1.37;;;0.77;;
16693;SDS011;39538;52.196;9.892;2023-01-01T13:50:23;1.67;;;0.70;;
